Time;durP1;ratioP1;P1;durP2;ratioP2;P2;SDS_P1;SDS_P2;PMS_P1;PMS_P2;Temp;Humidity;BMP_temperature;BMP_pressure;BME280_temperature;BME280_humidity;BME280_pressure;Samples;Min_cycle;Max_cycle;Signal;HPM_P1;HPM_P2
2023/09/26 00:00:18;;;;;;;13.87;12.70;;;18.20;99.90;;;;;;5052812;28;20468;-85
2023/09/26 00:02:46;;;;;;;11.17;10.17;;;18.20;99.90;;;;;;5061942;28;20468;-85
2023/09/26 00:05:20;;;;;;;10.33;9.50;;;18.20;99.90;;;;;;5071477;28;20481;-85
2023/09/26 00:07:53;;;;;;;9.10;8.40;;;18.20;99.90;;;;;;5068192;28;20484;-88
2023/09/26 00:10:24;;;;;;;9.00;8.10;;;18.10;99.90;;;;;;5083584;28;20537;-86
2023/09/26 00:13:05;;;;;;;8.90;7.87;;;18.10;99.90;;;;;;5072799;28;20604;-85
2023/09/26 00:15:35;;;;;;;39.73;31.50;;;18.10;99.90;;;;;;5063740;28;20535;-84
2023/09/26 00:18:05;;;;;;;27.57;23.53;;;18.10;99.90;;;;;;5073869;28;20800;-84
2023/09/26 00:20:35;;;;;;;18.10;16.10;;;18.10;99.90;;;;;;5068163;28;20955;-85
2023/09/26 00:23:07;;;;;;;12.77;11.53;;;18.10;99.90;;;;;;5088897;28;20465;-87
2023/09/26 00:25:41;;;;;;;11.83;10.60;;;18.10;99.90;;;;;;5073117;28;20478;-86
2023/09/26 00:28:11;;;;;;;11.03;10.03;;;18.10;99.90;;;;;;5073174;28;20545;-84
2023/09/26 00:30:48;;;;;;;;;;;;;;;;;;;;;
2023/09/26 00:33:15;;;;;;;10.20;9.27;;;18.10;99.90;;;;;;5069343;28;20816;-87
2023/09/26 00:35:42;;;;;;;8.70;8.00;;;18.10;99.90;;;;;;5083605;28;20466;-85
2023/09/26 00:38:14;;;;;;;9.00;8.30;;;18.00;99.90;;;;;;5073390;28;20470;-89
2023/09/26 00:40:45;;;;;;;9.30;8.60;;;18.00;99.90;;;;;;5071704;28;20496;-88
2023/09/26 00:43:24;;;;;;;10.33;9.53;;;18.00;99.90;;;;;;5073835;28;20467;-85
2023/09/26 00:45:56;;;;;;;8.87;8.17;;;18.00;99.90;;;;;;5070494;28;20995;-88
2023/09/26 00:48:23;;;;;;;8.20;7.40;;;18.00;99.90;;;;;;5080193;28;20470;-84
2023/09/26 00:50:51;;;;;;;8.80;8.10;;;18.00;99.90;;;;;;5073255;28;20474;-85
2023/09/26 00:53:20;;;;;;;9.60;8.67;;;18.00;99.90;;;;;;5073317;28;20470;-85
2023/09/26 00:55:50;;;;;;;9.43;8.63;;;18.00;99.90;;;;;;5072747;28;20562;-86
2023/09/26 00:58:21;;;;;;;9.50;8.73;;;18.00;99.90;;;;;;5073552;28;20474;-85
2023/09/26 01:00:51;;;;;;;12.73;11.43;;;18.00;99.90;;;;;;5072747;28;20983;-86
2023/09/26 01:03:18;;;;;;;11.97;10.87;;;18.00;99.90;;;;;;5067671;28;20476;-89
2023/09/26 01:05:58;;;;;;;12.40;11.30;;;18.00;99.90;;;;;;5077034;28;20474;-85
2023/09/26 01:08:28;;;;;;;11.17;10.17;;;17.90;99.90;;;;;;5068436;28;20462;-85
2023/09/26 01:10:55;;;;;;;12.43;11.53;;;17.90;99.90;;;;;;5073764;28;20472;-85
2023/09/26 01:13:22;;;;;;;10.47;9.57;;;17.90;99.90;;;;;;5063903;28;20566;-89
2023/09/26 01:15:58;;;;;;;10.93;10.13;;;17.90;99.90;;;;;;5072360;28;20470;-85
2023/09/26 01:18:25;;;;;;;13.07;11.80;;;17.90;99.90;;;;;;5072607;28;20962;-85
2023/09/26 01:20:56;;;;;;;10.77;9.77;;;17.90;99.90;;;;;;5072407;28;20475;-85
2023/09/26 01:23:29;;;;;;;11.50;10.40;;;17.90;99.90;;;;;;5072780;28;20473;-83
2023/09/26 01:25:57;;;;;;;10.80;9.90;;;17.90;99.90;;;;;;5065308;28;20558;-83
2023/09/26 01:28:32;;;;;;;10.50;9.60;;;17.80;99.90;;;;;;5075985;28;20470;-87
2023/09/26 01:30:59;;;;;;;9.90;9.10;;;17.90;99.90;;;;;;5072694;28;20513;-87
2023/09/26 01:33:26;;;;;;;12.07;10.90;;;17.80;99.90;;;;;;5072762;28;20556;-88
2023/09/26 01:36:07;;;;;;;11.20;10.20;;;17.80;99.90;;;;;;5063640;28;20482;-87
2023/09/26 01:38:35;;;;;;;9.00;8.27;;;17.80;99.90;;;;;;5072410;28;20796;-85
2023/09/26 01:41:25;;;;;;;11.33;10.40;;;17.80;99.90;;;;;;5071643;28;20497;-85
2023/09/26 01:43:52;;;;;;;11.40;10.50;;;17.80;99.90;;;;;;5069874;28;20480;-85
2023/09/26 01:47:02;;;;;;;13.13;10.90;;;17.80;99.90;;;;;;5075964;28;20546;-85
2023/09/26 01:49:31;;;;;;;11.73;10.63;;;17.80;99.90;;;;;;5030701;28;20492;-89
2023/09/26 01:52:01;;;;;;;11.80;10.80;;;17.80;99.90;;;;;;5029993;28;20453;-89
2023/09/26 01:54:31;;;;;;;12.20;10.40;;;17.70;99.90;;;;;;5045015;28;20466;-85
2023/09/26 01:57:02;;;;;;;12.20;11.20;;;17.70;99.90;;;;;;5072372;28;20486;-89
2023/09/26 01:59:30;;;;;;;10.90;10.00;;;17.70;99.90;;;;;;5077781;28;20978;-89
2023/09/26 02:02:00;;;;;;;9.50;8.70;;;17.70;99.90;;;;;;5072313;28;20876;-88
2023/09/26 02:04:32;;;;;;;9.23;8.53;;;17.70;99.90;;;;;;5070310;28;20485;-89
2023/09/26 02:07:00;;;;;;;10.50;9.70;;;17.70;99.90;;;;;;5069172;28;20455;-88
2023/09/26 02:09:32;;;;;;;11.53;10.47;;;17.70;99.90;;;;;;5072839;28;20486;-85
2023/09/26 02:12:03;;;;;;;10.87;9.70;;;17.70;99.90;;;;;;5072163;28;20479;-88
2023/09/26 02:14:30;;;;;;;10.30;9.40;;;17.60;99.90;;;;;;5072445;28;20474;-88
2023/09/26 02:16:57;;;;;;;12.57;11.40;;;17.60;99.90;;;;;;5071473;28;20462;-84
2023/09/26 02:19:27;;;;;;;10.53;9.73;;;17.60;99.90;;;;;;5068381;28;20469;-85
2023/09/26 02:22:01;;;;;;;10.90;10.00;;;17.60;99.90;;;;;;5071491;28;20485;-84
2023/09/26 02:24:29;;;;;;;11.27;10.07;;;17.60;99.90;;;;;;5072291;28;20557;-84
2023/09/26 02:26:58;;;;;;;11.50;10.50;;;17.60;99.90;;;;;;5071852;28;20480;-84
2023/09/26 02:29:28;;;;;;;10.67;9.80;;;17.60;99.90;;;;;;5062441;28;20481;-89
2023/09/26 02:31:55;;;;;;;11.03;10.03;;;17.50;99.90;;;;;;5072023;28;20536;-88
2023/09/26 02:34:27;;;;;;;10.60;9.70;;;17.50;99.90;;;;;;5072274;28;20517;-89
2023/09/26 02:36:56;;;;;;;10.60;9.80;;;17.50;99.90;;;;;;5062024;28;20493;-85
2023/09/26 02:39:44;;;;;;;10.43;9.40;;;17.50;99.90;;;;;;5081975;28;20466;-86
2023/09/26 02:42:16;;;;;;;10.60;9.70;;;17.50;99.90;;;;;;5065522;28;20493;-85
2023/09/26 02:47:31;;;;;;;12.00;11.00;;;17.40;99.90;;;;;;5074425;28;20458;-89
2023/09/26 02:49:58;;;;;;;11.17;10.37;;;17.40;99.90;;;;;;5075475;28;20483;-89
2023/09/26 02:52:26;;;;;;;11.87;10.80;;;17.50;99.90;;;;;;5080900;28;20465;-85
2023/09/26 02:54:55;;;;;;;12.10;11.20;;;17.40;99.90;;;;;;5075217;28;20528;-85
2023/09/26 02:58:22;;;;;;;12.27;11.17;;;17.40;99.90;;;;;;5065149;28;20496;-85
2023/09/26 03:01:12;;;;;;;11.67;10.50;;;17.40;99.90;;;;;;5061936;28;20557;-86
2023/09/26 03:04:13;;;;;;;11.67;10.60;;;17.40;99.90;;;;;;5078210;28;20477;-85
2023/09/26 03:10:07;;;;;;;12.20;11.07;;;17.30;99.90;;;;;;5059095;28;20450;-85
2023/09/26 03:12:39;;;;;;;12.20;11.17;;;17.30;99.90;;;;;;5078715;28;20540;-85
2023/09/26 03:15:10;;;;;;;12.33;11.23;;;17.20;99.90;;;;;;5091095;28;20462;-89
2023/09/26 03:17:44;;;;;;;13.37;12.13;;;17.20;99.90;;;;;;5076070;28;20469;-85
2023/09/26 03:20:15;;;;;;;11.93;11.00;;;17.20;99.90;;;;;;5098250;28;20462;-88
2023/09/26 03:22:53;;;;;;;10.87;9.97;;;17.20;99.90;;;;;;5078346;28;20463;-88
2023/09/26 03:25:21;;;;;;;12.83;11.73;;;17.20;99.90;;;;;;5085150;28;20469;-88
2023/09/26 03:27:48;;;;;;;13.40;12.20;;;17.30;99.90;;;;;;5073728;28;20477;-88
2023/09/26 03:30:21;;;;;;;13.63;12.60;;;17.20;99.90;;;;;;5090108;28;20508;-88
2023/09/26 03:32:52;;;;;;;14.37;12.90;;;17.20;99.90;;;;;;5069322;28;20477;-88
2023/09/26 03:35:22;;;;;;;11.30;10.40;;;17.20;99.90;;;;;;5079783;28;20501;-88
2023/09/26 03:37:51;;;;;;;11.93;10.93;;;17.20;99.90;;;;;;5088155;28;20549;-88
2023/09/26 03:40:18;;;;;;;13.37;12.40;;;17.20;99.90;;;;;;5077765;28;20463;-84
2023/09/26 03:42:48;;;;;;;13.10;12.10;;;17.20;99.90;;;;;;5064319;28;20485;-84
2023/09/26 03:45:17;;;;;;;13.97;12.50;;;17.20;99.90;;;;;;5075117;28;20508;-84
2023/09/26 03:47:47;;;;;;;14.80;12.33;;;17.20;99.90;;;;;;5074678;28;20477;-84
2023/09/26 03:50:19;;;;;;;12.63;11.63;;;17.30;99.90;;;;;;5066594;28;20469;-84
2023/09/26 03:52:54;;;;;;;13.70;12.43;;;17.20;99.90;;;;;;5076011;28;20466;-89
2023/09/26 03:55:24;;;;;;;11.47;10.40;;;17.20;99.90;;;;;;5079740;28;20548;-88
2023/09/26 03:57:53;;;;;;;14.00;12.77;;;17.20;99.90;;;;;;5074961;28;20988;-85
2023/09/26 04:00:32;;;;;;;15.03;12.93;;;17.20;99.90;;;;;;5075167;28;20497;-84
2023/09/26 04:03:02;;;;;;;12.97;11.77;;;17.20;99.90;;;;;;5074447;28;20504;-87
2023/09/26 04:05:33;;;;;;;11.70;10.70;;;17.20;99.90;;;;;;5073313;28;20551;-84
2023/09/26 04:08:02;;;;;;;13.53;12.30;;;17.20;99.90;;;;;;5073891;28;20493;-83
2023/09/26 04:10:29;;;;;;;13.90;12.60;;;17.20;99.90;;;;;;5074874;28;20473;-85
2023/09/26 04:12:56;;;;;;;13.00;11.83;;;17.20;99.90;;;;;;5083052;28;20469;-88
2023/09/26 04:15:23;;;;;;;14.87;13.67;;;17.30;99.90;;;;;;5075252;28;20466;-84
2023/09/26 04:17:50;;;;;;;14.80;13.23;;;17.20;99.90;;;;;;5074578;28;20466;-85
2023/09/26 04:20:19;;;;;;;13.27;11.83;;;17.20;99.90;;;;;;5075420;28;20463;-89
2023/09/26 04:22:48;;;;;;;12.37;11.27;;;17.20;99.90;;;;;;5075058;28;20960;-88
2023/09/26 04:25:27;;;;;;;13.67;12.47;;;17.20;99.90;;;;;;5076764;28;20466;-88
2023/09/26 04:27:55;;;;;;;14.93;13.63;;;17.20;99.90;;;;;;5070341;28;20501;-84
2023/09/26 04:33:57;;;;;;;18.80;15.10;;;17.20;99.90;;;;;;5009216;28;20867;-84
2023/09/26 04:36:26;;;;;;;17.20;15.57;;;17.20;99.90;;;;;;5013327;28;20504;-84
2023/09/26 04:39:26;;;;;;;16.13;14.47;;;17.10;99.90;;;;;;5057585;28;20534;-88
2023/09/26 04:41:55;;;;;;;13.60;12.40;;;17.10;99.90;;;;;;5067901;28;20476;-84
2023/09/26 04:44:43;;;;;;;;;;;;;;;;;;;;;
2023/09/26 04:47:15;;;;;;;14.70;13.37;;;17.10;99.90;;;;;;5079533;28;20466;-84
2023/09/26 04:49:43;;;;;;;15.90;14.60;;;17.00;99.90;;;;;;5071129;28;20493;-84
2023/09/26 04:52:59;;;;;;;16.43;14.83;;;17.00;99.90;;;;;;5073235;28;20520;-84
2023/09/26 04:58:51;;;;;;;14.43;13.13;;;17.00;99.90;;;;;;5069519;28;20452;-84
2023/09/26 05:01:29;;;;;;;;;;;;;;;;;;;;;
2023/09/26 05:04:20;;;;;;;16.00;14.43;;;17.00;99.90;;;;;;5016357;28;20461;-83
2023/09/26 05:06:59;;;;;;;18.50;16.87;;;17.00;99.90;;;;;;5074357;28;20470;-84
2023/09/26 05:09:39;;;;;;;16.10;14.50;;;17.00;99.90;;;;;;5078165;28;20949;-88
2023/09/26 05:12:07;;;;;;;14.70;13.40;;;17.00;99.90;;;;;;5073684;28;20458;-84
2023/09/26 05:14:42;;;;;;;16.07;14.60;;;16.90;99.90;;;;;;5073656;28;20474;-83
2023/09/26 05:17:11;;;;;;;18.20;16.40;;;16.90;99.90;;;;;;5073476;28;20485;-84
2023/09/26 05:19:43;;;;;;;15.50;13.90;;;16.90;99.90;;;;;;5063596;28;20467;-84
2023/09/26 05:22:12;;;;;;;15.67;14.00;;;16.90;99.90;;;;;;5073457;28;20478;-85
2023/09/26 05:24:54;;;;;;;17.60;15.80;;;16.90;99.90;;;;;;5078908;28;20966;-85
2023/09/26 05:27:52;;;;;;;17.23;15.53;;;16.90;99.90;;;;;;5066946;28;20565;-85
2023/09/26 05:30:39;;;;;;;17.67;15.87;;;16.90;99.90;;;;;;5076935;28;20638;-85
2023/09/26 05:33:31;;;;;;;15.50;14.10;;;16.90;99.90;;;;;;5074946;28;20544;-83
2023/09/26 05:36:04;;;;;;;15.30;13.90;;;16.90;99.90;;;;;;5074995;28;20470;-84
2023/09/26 05:38:34;;;;;;;14.70;13.30;;;16.90;99.90;;;;;;5080925;28;20489;-85
2023/09/26 05:41:02;;;;;;;16.20;14.70;;;16.90;99.90;;;;;;5078194;28;20496;-90
2023/09/26 05:43:45;;;;;;;15.43;14.00;;;16.90;99.90;;;;;;5066590;28;20528;-89
2023/09/26 05:46:21;;;;;;;14.40;13.10;;;17.00;99.90;;;;;;5067131;28;20564;-85
2023/09/26 05:49:02;;;;;;;14.17;13.07;;;17.00;99.90;;;;;;5080134;28;20499;-84
2023/09/26 05:51:31;;;;;;;16.30;14.90;;;17.00;99.90;;;;;;5058428;28;20497;-84
2023/09/26 05:53:59;;;;;;;15.90;14.40;;;17.00;99.90;;;;;;5069035;28;20466;-84
2023/09/26 05:56:28;;;;;;;15.37;13.87;;;17.00;99.90;;;;;;5064766;28;20467;-81
2023/09/26 05:59:13;;;;;;;16.53;13.90;;;17.00;99.90;;;;;;5065562;28;20986;-82
2023/09/26 06:01:48;;;;;;;15.17;13.70;;;17.00;99.90;;;;;;5065442;28;20537;-82
2023/09/26 06:07:25;;;;;;;14.33;13.03;;;17.10;99.90;;;;;;5059249;28;20521;-83
2023/09/26 06:16:35;;;;;;;17.27;15.57;;;17.10;99.90;;;;;;5031046;28;20467;-85
2023/09/26 06:19:16;;;;;;;16.30;14.70;;;17.20;99.90;;;;;;5057814;28;20459;-84
2023/09/26 06:22:17;;;;;;;17.43;15.83;;;17.20;99.90;;;;;;5047238;28;20578;-84
2023/09/26 06:32:30;;;;;;;17.37;15.77;;;17.30;99.90;;;;;;5713647;22;20483;-84
2023/09/26 06:35:29;;;;;;;17.47;15.87;;;17.30;99.90;;;;;;5020606;28;20479;-84
2023/09/26 06:37:57;;;;;;;18.07;16.17;;;17.30;99.90;;;;;;5043837;28;20473;-84
2023/09/26 06:44:09;;;;;;;16.50;14.90;;;17.40;99.90;;;;;;4973207;28;20496;-83
2023/09/26 06:47:20;;;;;;;19.27;17.17;;;17.40;99.90;;;;;;5006239;28;20942;-83
2023/09/26 06:49:55;;;;;;;17.10;15.67;;;17.50;99.90;;;;;;4995432;28;20480;-83
2023/09/26 06:52:54;;;;;;;17.90;15.20;;;17.50;99.90;;;;;;5007818;28;20468;-84
2023/09/26 06:56:08;;;;;;;18.40;16.70;;;17.50;99.90;;;;;;5023449;28;20647;-84
2023/09/26 07:28:20;;;;;;;18.10;15.90;;;18.10;99.90;;;;;;5012754;28;20472;-88
2023/09/26 07:37:50;;;;;;;19.37;17.57;;;18.30;99.90;;;;;;4922592;29;20476;-84
2023/09/26 07:40:23;;;;;;;19.17;17.10;;;18.40;99.90;;;;;;4935596;28;20482;-88
2023/09/26 07:43:33;;;;;;;;;;;;;;;;;;;;;
2023/09/26 07:52:22;;;;;;;17.33;15.53;;;18.70;99.90;;;;;;4994833;28;20453;-89
2023/09/26 08:02:07;;;;;;;18.50;16.70;;;18.90;99.90;;;;;;4977253;28;20528;-88
2023/09/26 09:18:58;;;;;;;13.97;12.77;;;20.30;99.90;;;;;;5539799;23;20495;-87
2023/09/26 09:21:30;;;;;;;15.33;13.70;;;20.40;99.90;;;;;;5036458;28;20572;-85
2023/09/26 09:24:08;;;;;;;14.43;13.13;;;20.50;99.90;;;;;;5019660;28;20841;-85
2023/09/26 09:30:28;;;;;;;14.33;12.80;;;20.50;99.90;;;;;;5046677;28;20533;-83
2023/09/26 09:32:55;;;;;;;14.77;13.37;;;20.60;99.90;;;;;;5049753;28;20531;-84
2023/09/26 09:35:25;;;;;;;16.53;13.63;;;20.60;99.90;;;;;;5053553;28;20475;-84
2023/09/26 09:37:52;;;;;;;12.23;11.07;;;20.60;99.90;;;;;;5048815;28;20478;-84
2023/09/26 09:40:22;;;;;;;13.40;12.20;;;20.70;99.90;;;;;;5049526;28;20474;-84
2023/09/26 09:42:50;;;;;;;11.10;10.20;;;20.80;99.90;;;;;;5048551;28;20483;-84
2023/09/26 09:45:24;;;;;;;12.47;11.47;;;20.80;99.90;;;;;;5044682;28;20479;-84
2023/09/26 09:48:01;;;;;;;10.70;9.80;;;20.90;99.90;;;;;;5047343;28;20475;-84
2023/09/26 09:50:33;;;;;;;12.47;11.13;;;21.00;99.90;;;;;;5036744;28;20463;-84
2023/09/26 09:53:05;;;;;;;10.77;9.93;;;21.00;99.90;;;;;;5035045;28;20468;-85
2023/09/26 09:55:43;;;;;;;12.60;10.00;;;21.10;99.90;;;;;;5035619;28;20923;-85
2023/09/26 09:58:15;;;;;;;10.30;9.37;;;21.10;99.90;;;;;;5028501;28;20489;-89
2023/09/26 10:25:08;;;;;;;;;;;;;;;;;;;;;
2023/09/26 10:52:40;;;;;;;;;;;;;;;;;;;;;
2023/09/26 10:59:17;;;;;;;9.40;8.50;;;22.00;99.90;;;;;;4949958;28;20478;-86
2023/09/26 11:47:08;;;;;;;7.70;7.10;;;22.80;99.90;;;;;;5021429;28;20510;-86
2023/09/26 12:01:41;;;;;;;7.90;6.83;;;22.90;99.90;;;;;;5066867;28;20466;-89
2023/09/26 12:04:21;;;;;;;7.70;6.87;;;22.90;99.90;;;;;;5058132;28;20478;-90
2023/09/26 12:06:52;;;;;;;8.27;7.67;;;23.00;99.90;;;;;;5034499;28;20463;-89
2023/09/26 12:13:28;;;;;;;9.27;8.33;;;23.00;99.90;;;;;;4900036;28;20570;-89
2023/09/26 12:16:02;;;;;;;7.53;6.70;;;23.10;99.90;;;;;;4982382;28;20476;-90
2023/09/26 12:18:35;;;;;;;19.83;11.47;;;23.10;99.90;;;;;;5025687;28;20502;-88
2023/09/26 12:21:08;;;;;;;10.27;9.03;;;23.10;99.90;;;;;;5011632;28;20977;-87
2023/09/26 12:23:48;;;;;;;;;;;;;;;;;;;;;
2023/09/26 12:26:18;;;;;;;10.10;8.83;;;23.20;99.90;;;;;;5020169;28;20494;-88
2023/09/26 12:28:45;;;;;;;8.47;7.60;;;23.20;99.90;;;;;;5029370;28;20523;-89
2023/09/26 12:31:23;;;;;;;8.70;7.87;;;23.20;99.90;;;;;;5044568;28;20536;-88
2023/09/26 12:33:50;;;;;;;8.03;7.33;;;23.30;99.90;;;;;;5056426;28;20467;-87
2023/09/26 12:36:31;;;;;;;8.77;7.63;;;23.40;99.90;;;;;;5028043;28;20480;-89
2023/09/26 12:38:59;;;;;;;7.30;6.70;;;23.40;99.90;;;;;;5029515;28;20483;-89
2023/09/26 12:41:31;;;;;;;10.37;9.47;;;23.40;99.90;;;;;;5045626;28;20533;-89
2023/09/26 12:44:12;;;;;;;14.00;11.50;;;23.40;99.90;;;;;;5020342;28;20550;-87
2023/09/26 12:46:45;;;;;;;9.37;8.67;;;23.40;99.90;;;;;;5024646;28;20460;-84
2023/09/26 12:49:19;;;;;;;8.33;7.63;;;23.50;99.90;;;;;;5015934;28;20463;-88
2023/09/26 12:52:00;;;;;;;8.50;7.87;;;23.40;99.90;;;;;;5029665;28;20475;-87
2023/09/26 12:55:03;;;;;;;8.07;7.30;;;23.40;99.90;;;;;;5053385;28;20505;-87
2023/09/26 12:57:38;;;;;;;8.73;7.73;;;23.40;99.90;;;;;;5061275;28;20478;-88
2023/09/26 13:00:10;;;;;;;7.37;6.77;;;23.40;99.90;;;;;;5060028;28;20513;-85
2023/09/26 13:02:40;;;;;;;8.43;7.80;;;23.40;99.90;;;;;;5053731;28;20521;-87
2023/09/26 13:05:25;;;;;;;8.20;7.60;;;23.50;99.90;;;;;;5053251;28;20486;-81
2023/09/26 13:07:55;;;;;;;8.63;7.60;;;23.50;99.90;;;;;;5053570;28;20539;-87
2023/09/26 13:10:26;;;;;;;7.20;6.57;;;23.50;99.90;;;;;;5042892;28;20464;-87
2023/09/26 13:13:03;;;;;;;7.90;7.20;;;23.50;99.90;;;;;;4981766;28;20497;-86
2023/09/26 13:15:37;;;;;;;7.60;6.90;;;23.50;99.90;;;;;;4984190;28;20569;-86
2023/09/26 13:36:15;;;;;;;11.47;10.27;;;23.50;99.90;;;;;;5285079;22;20543;-87
2023/09/26 13:39:24;;;;;;;9.60;8.60;;;23.50;99.90;;;;;;5017077;28;20480;-84
2023/09/26 13:41:53;;;;;;;14.30;12.40;;;23.50;99.90;;;;;;5049430;28;20499;-81
2023/09/26 13:51:30;;;;;;;11.57;8.60;;;23.70;99.90;;;;;;4885753;28;21049;-80
2023/09/26 13:53:57;;;;;;;9.87;8.90;;;23.80;99.90;;;;;;5030159;28;20504;-81
2023/09/26 13:56:25;;;;;;;20.53;18.43;;;23.70;99.90;;;;;;5044794;28;21040;-85
2023/09/26 13:58:55;;;;;;;22.20;20.10;;;23.80;99.90;;;;;;5039105;28;20475;-80
2023/09/26 14:01:27;;;;;;;10.10;9.23;;;23.80;99.90;;;;;;5038252;28;20485;-81
2023/09/26 14:04:03;;;;;;;12.30;11.17;;;23.80;99.90;;;;;;5017666;28;20877;-86
2023/09/26 14:06:35;;;;;;;8.00;7.20;;;23.80;99.90;;;;;;5058602;28;20460;-82
2023/09/26 14:09:08;;;;;;;8.80;7.77;;;23.80;99.90;;;;;;5036815;28;20461;-85
2023/09/26 14:11:38;;;;;;;8.63;7.10;;;23.70;99.90;;;;;;5036998;28;20530;-84
2023/09/26 14:14:07;;;;;;;9.70;8.40;;;23.70;99.90;;;;;;4997294;28;21078;-85
2023/09/26 14:16:46;;;;;;;9.47;8.63;;;23.70;99.90;;;;;;5012685;28;20810;-84
2023/09/26 14:19:24;;;;;;;8.83;7.93;;;23.70;99.90;;;;;;5013786;28;20549;-85
2023/09/26 14:21:56;;;;;;;10.97;9.97;;;23.70;99.90;;;;;;5032620;28;20479;-86
2023/09/26 14:24:27;;;;;;;10.00;9.00;;;23.70;99.90;;;;;;5036145;28;20513;-86
2023/09/26 14:27:03;;;;;;;9.90;9.00;;;23.70;99.90;;;;;;5013076;28;20496;-86
2023/09/26 14:29:40;;;;;;;8.10;7.30;;;23.70;99.90;;;;;;5019138;28;20472;-86
2023/09/26 14:32:08;;;;;;;8.10;7.30;;;23.70;99.90;;;;;;5024038;28;20472;-86
2023/09/26 14:34:37;;;;;;;16.97;12.13;;;23.70;99.90;;;;;;5026158;28;20557;-86
2023/09/26 14:37:05;;;;;;;10.03;7.90;;;23.70;99.90;;;;;;5018571;28;20461;-86
2023/09/26 14:39:32;;;;;;;10.73;9.57;;;23.60;99.90;;;;;;5017058;28;21003;-87
2023/09/26 14:42:13;;;;;;;11.40;10.40;;;23.60;99.90;;;;;;5015822;28;20469;-87
2023/09/26 14:44:41;;;;;;;14.53;12.23;;;23.70;99.90;;;;;;5016873;28;20482;-86
2023/09/26 14:47:09;;;;;;;16.93;15.33;;;23.70;99.90;;;;;;5016852;28;20453;-80
2023/09/26 14:49:36;;;;;;;10.20;9.40;;;23.70;99.90;;;;;;5000077;28;20504;-80
2023/09/26 14:52:03;;;;;;;12.20;11.20;;;23.70;99.90;;;;;;5010361;28;20489;-81
2023/09/26 14:54:34;;;;;;;18.63;16.80;;;23.70;99.90;;;;;;4996965;28;20520;-81
2023/09/26 14:57:03;;;;;;;13.53;12.23;;;23.70;99.90;;;;;;4996018;28;20481;-81
2023/09/26 14:59:30;;;;;;;16.73;13.47;;;23.70;99.90;;;;;;4995872;28;20550;-80
2023/09/26 15:01:59;;;;;;;9.43;8.60;;;23.70;99.90;;;;;;4996652;28;20585;-81
2023/09/26 15:04:26;;;;;;;13.20;10.67;;;23.70;99.90;;;;;;4984085;28;20487;-81
2023/09/26 15:06:53;;;;;;;10.80;9.80;;;23.80;99.90;;;;;;4978288;28;20479;-80
2023/09/26 15:09:20;;;;;;;14.23;12.90;;;23.70;99.90;;;;;;4977168;28;20466;-82
2023/09/26 15:11:47;;;;;;;12.70;11.63;;;23.70;99.90;;;;;;4977563;28;20475;-80
2023/09/26 15:14:15;;;;;;;9.03;8.23;;;23.70;99.90;;;;;;4976972;28;20471;-81
2023/09/26 15:16:45;;;;;;;12.77;11.67;;;23.70;99.90;;;;;;4976971;28;20989;-82
2023/09/26 15:19:14;;;;;;;14.20;13.00;;;23.70;99.90;;;;;;4976340;28;20483;-82
2023/09/26 15:21:42;;;;;;;17.93;16.17;;;23.70;99.90;;;;;;4976786;28;20966;-81
2023/09/26 15:24:17;;;;;;;11.13;10.03;;;23.70;99.90;;;;;;4976431;28;20482;-82
2023/09/26 15:26:44;;;;;;;16.83;15.27;;;23.70;99.90;;;;;;4977087;28;20482;-81
2023/09/26 15:29:11;;;;;;;15.00;13.60;;;23.60;99.90;;;;;;4976416;28;20962;-81
2023/09/26 15:31:38;;;;;;;13.00;11.90;;;23.60;99.90;;;;;;4977445;28;20498;-81
2023/09/26 15:34:13;;;;;;;16.40;14.70;;;23.60;99.90;;;;;;4977124;28;20488;-82
2023/09/26 15:36:43;;;;;;;15.70;14.30;;;23.50;99.90;;;;;;4976891;28;20569;-81
2023/09/26 15:39:13;;;;;;;15.93;14.53;;;23.60;99.90;;;;;;4968695;28;20481;-82
2023/09/26 15:44:22;;;;;;;13.53;12.20;;;23.50;99.90;;;;;;4975812;28;20531;-80
2023/09/26 15:49:30;;;;;;;14.50;13.00;;;23.40;99.90;;;;;;4954178;28;20968;-80
2023/09/26 15:51:58;;;;;;;18.07;16.13;;;23.40;99.90;;;;;;4977010;28;20537;-81
2023/09/26 15:54:25;;;;;;;9.93;9.03;;;23.30;99.90;;;;;;4976427;28;20553;-81
2023/09/26 15:56:52;;;;;;;10.60;9.80;;;23.30;99.90;;;;;;4975244;28;21275;-81
2023/09/26 15:59:22;;;;;;;9.87;8.97;;;23.20;99.90;;;;;;4976210;28;20459;-81
2023/09/26 16:01:49;;;;;;;10.20;9.30;;;23.20;99.90;;;;;;4975569;28;20601;-81
2023/09/26 16:04:16;;;;;;;16.47;14.50;;;23.20;99.90;;;;;;4974821;28;20467;-81
2023/09/26 16:06:45;;;;;;;12.80;11.60;;;23.20;99.90;;;;;;4975255;28;20471;-80
2023/09/26 16:09:16;;;;;;;12.20;11.00;;;23.20;99.90;;;;;;4966402;28;20471;-80
2023/09/26 16:11:44;;;;;;;11.40;10.40;;;23.20;99.90;;;;;;4975222;28;20474;-79
2023/09/26 16:14:11;;;;;;;10.70;9.80;;;23.10;99.90;;;;;;4974140;28;20584;-81
2023/09/26 16:16:39;;;;;;;15.30;13.83;;;23.10;99.90;;;;;;4975305;28;20545;-81
2023/09/26 16:19:12;;;;;;;10.80;9.60;;;23.10;99.90;;;;;;4974802;28;20531;-81
2023/09/26 16:21:39;;;;;;;10.70;9.80;;;23.10;99.90;;;;;;4975095;28;20481;-81
2023/09/26 16:26:43;;;;;;;11.10;10.20;;;23.10;99.90;;;;;;5287834;23;20804;-80
2023/09/26 16:29:10;;;;;;;10.50;9.57;;;23.10;99.90;;;;;;4992647;28;20479;-81
2023/09/26 16:31:37;;;;;;;12.10;11.10;;;23.00;99.90;;;;;;5022092;28;20526;-81
2023/09/26 16:34:04;;;;;;;11.20;10.13;;;23.00;99.90;;;;;;5011449;28;20501;-81
2023/09/26 16:36:35;;;;;;;10.83;9.83;;;23.00;99.90;;;;;;4994401;28;20498;-81
2023/09/26 16:39:01;;;;;;;11.57;10.67;;;23.00;99.90;;;;;;4995313;28;20474;-80
2023/09/26 16:41:30;;;;;;;11.67;10.67;;;22.90;99.90;;;;;;4995838;28;20510;-81
2023/09/26 16:44:02;;;;;;;11.83;10.90;;;22.80;99.90;;;;;;4998847;28;20540;-80
2023/09/26 16:46:29;;;;;;;11.07;10.27;;;22.80;99.90;;;;;;5000627;28;20470;-81
2023/09/26 16:48:56;;;;;;;10.50;9.70;;;22.80;99.90;;;;;;4997004;28;20579;-81
2023/09/26 16:51:26;;;;;;;11.83;10.83;;;22.70;99.90;;;;;;4994230;28;20845;-81
2023/09/26 16:53:58;;;;;;;12.33;11.20;;;22.60;99.90;;;;;;4995282;28;20462;-81
2023/09/26 16:56:29;;;;;;;11.70;10.70;;;22.50;99.90;;;;;;4995256;28;20466;-80
2023/09/26 16:58:56;;;;;;;10.80;9.90;;;22.50;99.90;;;;;;4995043;28;20552;-81
2023/09/26 17:01:25;;;;;;;11.90;10.97;;;22.50;99.90;;;;;;4995089;28;20553;-81
2023/09/26 17:03:52;;;;;;;11.83;10.83;;;22.40;99.90;;;;;;4994957;28;20504;-80
2023/09/26 17:06:19;;;;;;;14.67;13.27;;;22.30;99.90;;;;;;4994451;28;20552;-81
2023/09/26 17:08:48;;;;;;;12.73;11.70;;;22.30;99.90;;;;;;4995007;28;20966;-81
2023/09/26 17:11:15;;;;;;;13.43;12.30;;;22.20;99.90;;;;;;4994099;28;20473;-80
2023/09/26 17:13:48;;;;;;;14.97;13.40;;;22.10;99.90;;;;;;4995011;28;20470;-81
2023/09/26 17:16:17;;;;;;;12.90;11.70;;;22.10;99.90;;;;;;4994171;28;20549;-81
2023/09/26 17:18:49;;;;;;;13.80;12.30;;;22.00;99.90;;;;;;4994205;28;20496;-81
2023/09/26 17:21:19;;;;;;;14.57;13.37;;;22.00;99.90;;;;;;4994421;28;20827;-80
2023/09/26 17:23:47;;;;;;;12.73;11.53;;;21.90;99.90;;;;;;4994133;28;20470;-82
2023/09/26 17:26:15;;;;;;;12.77;11.60;;;21.90;99.90;;;;;;4993127;28;20473;-81
2023/09/26 17:28:42;;;;;;;12.73;11.63;;;21.80;99.90;;;;;;4994131;28;20961;-79
2023/09/26 17:31:09;;;;;;;12.20;11.20;;;21.80;99.90;;;;;;4994103;28;20470;-81
2023/09/26 17:33:39;;;;;;;12.73;11.53;;;21.70;99.90;;;;;;4994356;28;20474;-81
2023/09/26 17:36:08;;;;;;;12.93;11.60;;;21.70;99.90;;;;;;4993878;28;20817;-82
2023/09/26 17:38:41;;;;;;;11.80;10.90;;;21.60;99.90;;;;;;4994135;28;20470;-80
2023/09/26 17:41:08;;;;;;;12.70;11.53;;;21.60;99.90;;;;;;4993592;28;20544;-80
2023/09/26 17:43:35;;;;;;;13.70;12.50;;;21.50;99.90;;;;;;4994164;28;20474;-81
2023/09/26 17:46:03;;;;;;;14.10;12.80;;;21.50;99.90;;;;;;4988759;28;21045;-80
2023/09/26 17:48:30;;;;;;;12.97;11.67;;;21.50;99.90;;;;;;4975061;28;20459;-79
2023/09/26 17:50:57;;;;;;;12.87;11.63;;;21.40;99.90;;;;;;4975812;28;20479;-81
2023/09/26 17:53:26;;;;;;;13.00;12.00;;;21.40;99.90;;;;;;4973563;28;20494;-82
2023/09/26 17:55:53;;;;;;;13.83;12.63;;;21.40;99.90;;;;;;4980190;28;20469;-81
2023/09/26 17:58:23;;;;;;;13.43;11.93;;;21.30;99.90;;;;;;4976402;28;20475;-87
2023/09/26 18:00:50;;;;;;;14.33;13.07;;;21.30;99.90;;;;;;4975421;28;20470;-87
2023/09/26 18:03:17;;;;;;;14.60;13.30;;;21.30;99.90;;;;;;4976782;28;20486;-87
2023/09/26 18:05:48;;;;;;;17.00;15.27;;;21.20;99.90;;;;;;4975731;28;20807;-87
2023/09/26 18:08:15;;;;;;;17.30;15.70;;;21.20;99.90;;;;;;4975309;28;20470;-87
2023/09/26 18:10:44;;;;;;;16.37;14.87;;;21.20;99.90;;;;;;4978107;28;20475;-86
2023/09/26 18:13:11;;;;;;;17.40;15.90;;;21.10;99.90;;;;;;4986228;28;20525;-87
2023/09/26 18:19:14;;;;;;;21.27;19.17;;;21.10;99.90;;;;;;4947996;28;20998;-84
2023/09/26 18:21:41;;;;;;;19.50;17.63;;;21.00;99.90;;;;;;4982375;28;20506;-86